createdAt,value
2023-05-10T00:02:16.898Z,11.76
2023-05-10T00:04:43.559Z,11.69
2023-05-10T00:07:11.324Z,11.66
2023-05-10T00:09:37.923Z,11.65
2023-05-10T00:12:04.745Z,11.62
2023-05-10T00:14:31.408Z,11.58
2023-05-10T00:16:58.032Z,11.55
2023-05-10T00:19:25.211Z,11.55
2023-05-10T00:21:51.779Z,11.50
2023-05-10T00:24:18.327Z,11.45
2023-05-10T00:26:44.909Z,11.47
2023-05-10T00:29:11.510Z,11.46
2023-05-10T00:31:38.084Z,11.44
2023-05-10T00:34:04.677Z,11.37
2023-05-10T00:36:32.269Z,11.34
2023-05-10T00:38:59.021Z,11.24
2023-05-10T00:41:25.627Z,11.21
2023-05-10T00:43:52.241Z,11.15
2023-05-10T00:46:19.332Z,11.14
2023-05-10T00:48:46.337Z,11.02
2023-05-10T00:51:13.935Z,10.98
2023-05-10T00:53:41.526Z,11.01
2023-05-10T00:56:08.205Z,11.03
2023-05-10T00:58:34.950Z,11.04
2023-05-10T01:01:02.314Z,11.08
2023-05-10T01:03:29.337Z,11.04
2023-05-10T01:05:56.288Z,10.97
2023-05-10T01:08:23.006Z,10.96
2023-05-10T01:10:53.576Z,10.94
2023-05-10T01:13:41.914Z,10.91
2023-05-10T01:16:08.776Z,10.88
2023-05-10T01:18:39.462Z,10.83
2023-05-10T01:21:16.205Z,10.79
2023-05-10T01:24:14.603Z,10.74
2023-05-10T01:27:11.929Z,10.70
2023-05-10T01:30:16.287Z,10.67
2023-05-10T01:33:09.157Z,10.70
2023-05-10T01:35:43.785Z,10.67
2023-05-10T01:38:19.192Z,10.62
2023-05-10T01:40:45.595Z,10.58
2023-05-10T01:43:20.657Z,10.53
2023-05-10T01:45:56.842Z,10.45
2023-05-10T01:48:25.724Z,10.43
2023-05-10T01:50:53.140Z,10.39
2023-05-10T01:53:21.519Z,10.40
2023-05-10T01:55:51.824Z,10.40
2023-05-10T01:58:23.788Z,10.39
2023-05-10T02:00:53.301Z,10.38
2023-05-10T02:03:23.211Z,10.37
2023-05-10T02:05:51.919Z,10.37
2023-05-10T02:08:20.080Z,10.34
2023-05-10T02:10:47.519Z,10.29
2023-05-10T02:13:17.253Z,10.26
2023-05-10T02:15:46.311Z,10.26
2023-05-10T02:18:14.708Z,10.19
2023-05-10T02:20:42.831Z,10.21
2023-05-10T02:23:10.853Z,10.22
2023-05-10T02:25:39.711Z,10.28
2023-05-10T02:28:08.404Z,10.35
2023-05-10T02:30:35.826Z,10.39
2023-05-10T02:33:05.223Z,10.45
2023-05-10T02:35:34.399Z,10.54
2023-05-10T02:38:02.029Z,10.57
2023-05-10T02:40:29.602Z,10.64
2023-05-10T02:42:57.898Z,10.68
2023-05-10T02:45:29.088Z,10.68
2023-05-10T02:47:56.735Z,10.72
2023-05-10T02:50:25.886Z,10.74
2023-05-10T02:52:55.545Z,10.74
2023-05-10T02:55:33.339Z,10.76
2023-05-10T02:58:01.981Z,10.73
2023-05-10T03:00:29.025Z,10.71
2023-05-10T03:02:55.948Z,10.71
2023-05-10T03:05:22.764Z,10.66
2023-05-10T03:07:49.537Z,10.63
2023-05-10T03:10:16.795Z,10.62
2023-05-10T03:13:26.112Z,10.57
2023-05-10T03:16:00.221Z,10.49
2023-05-10T03:18:34.817Z,10.44
2023-05-10T03:21:08.209Z,10.41
2023-05-10T03:23:44.331Z,10.32
2023-05-10T03:26:15.672Z,10.29
2023-05-10T03:28:42.835Z,10.25
2023-05-10T03:31:10.187Z,10.24
2023-05-10T03:33:36.800Z,10.20
2023-05-10T03:36:03.596Z,10.16
2023-05-10T03:38:30.720Z,10.14
2023-05-10T03:40:57.342Z,10.15
2023-05-10T03:43:23.935Z,10.16
2023-05-10T03:45:50.581Z,10.15
2023-05-10T03:48:17.130Z,10.11
2023-05-10T03:50:43.938Z,10.04
2023-05-10T03:53:10.608Z,10.02
2023-05-10T03:55:37.567Z,10.04
2023-05-10T03:58:04.268Z,10.04
2023-05-10T04:00:31.186Z,10.00
2023-05-10T04:02:57.905Z,9.97
2023-05-10T04:05:24.755Z,9.99
2023-05-10T04:07:52.179Z,9.99
2023-05-10T04:10:19.052Z,9.99
2023-05-10T04:12:45.849Z,9.97
2023-05-10T04:15:12.518Z,10.01
2023-05-10T04:17:39.163Z,10.02
2023-05-10T04:20:06.496Z,10.03
2023-05-10T04:22:33.400Z,10.06
2023-05-10T04:25:00.016Z,10.07
2023-05-10T04:27:26.637Z,10.08
2023-05-10T04:29:53.205Z,10.08
2023-05-10T04:32:20.163Z,10.11
2023-05-10T04:34:47.017Z,10.17
2023-05-10T04:37:13.600Z,10.25
2023-05-10T04:39:42.192Z,10.27
2023-05-10T04:42:09.251Z,10.31
2023-05-10T04:44:36.381Z,10.36
2023-05-10T04:47:03.927Z,10.44
2023-05-10T04:49:30.921Z,10.53
2023-05-10T04:51:57.546Z,10.57
2023-05-10T04:54:24.218Z,10.64
2023-05-10T04:56:50.804Z,10.67
2023-05-10T04:59:17.404Z,10.70
2023-05-10T05:01:44.317Z,10.74
2023-05-10T05:04:10.922Z,10.81
2023-05-10T05:06:37.653Z,10.88
2023-05-10T05:09:04.301Z,10.95
2023-05-10T05:11:31.004Z,11.03
2023-05-10T05:13:59.897Z,11.08
2023-05-10T05:16:26.965Z,11.14
2023-05-10T05:18:53.545Z,11.17
2023-05-10T05:21:21.070Z,11.20
2023-05-10T05:23:47.634Z,11.25
2023-05-10T05:26:14.237Z,11.28
2023-05-10T05:28:40.887Z,11.32
2023-05-10T05:31:08.724Z,11.38
2023-05-10T05:33:35.865Z,11.44
2023-05-10T05:36:04.299Z,11.49
2023-05-10T05:38:31.084Z,11.51
2023-05-10T05:40:58.144Z,11.55
2023-05-10T05:43:24.783Z,11.61
2023-05-10T05:45:54.172Z,11.68
2023-05-10T05:48:21.098Z,11.75
2023-05-10T05:50:47.658Z,11.81
2023-05-10T05:53:14.281Z,11.86
2023-05-10T05:55:41.059Z,11.95
2023-05-10T05:58:07.698Z,12.05
2023-05-10T06:00:34.348Z,12.10
2023-05-10T06:03:00.949Z,12.17
2023-05-10T06:05:27.714Z,12.18
2023-05-10T06:07:54.510Z,12.25
2023-05-10T06:10:21.038Z,12.31
2023-05-10T06:12:47.784Z,12.35
2023-05-10T06:15:14.653Z,12.42
2023-05-10T06:17:41.483Z,12.49
2023-05-10T06:20:08.685Z,12.54
2023-05-10T06:22:35.555Z,12.68
2023-05-10T06:25:03.007Z,12.79
2023-05-10T06:27:32.577Z,12.84
2023-05-10T06:30:11.934Z,12.89
2023-05-10T06:32:39.840Z,12.87
2023-05-10T06:35:06.935Z,12.92
2023-05-10T06:37:33.514Z,12.95
2023-05-10T06:40:00.279Z,13.08
2023-05-10T06:42:28.061Z,13.14
2023-05-10T06:44:54.608Z,13.11
2023-05-10T06:47:21.170Z,13.15
2023-05-10T06:49:47.818Z,13.20
2023-05-10T06:52:14.403Z,13.31
2023-05-10T06:54:40.946Z,13.38
2023-05-10T06:57:15.967Z,13.58
2023-05-10T06:59:50.278Z,13.71
2023-05-10T07:02:16.999Z,13.82
2023-05-10T07:04:43.641Z,13.91
2023-05-10T07:07:10.289Z,14.02
2023-05-10T07:09:36.895Z,14.09
2023-05-10T07:12:03.845Z,14.23
2023-05-10T07:14:30.483Z,14.35
2023-05-10T07:16:57.149Z,14.41
2023-05-10T07:19:24.120Z,14.42
2023-05-10T07:21:51.829Z,14.48
2023-05-10T07:24:18.682Z,14.59
2023-05-10T07:26:45.321Z,14.73
2023-05-10T07:29:11.898Z,14.84
2023-05-10T07:31:38.680Z,14.79
2023-05-10T07:34:05.702Z,14.83
2023-05-10T07:36:32.373Z,15.03
2023-05-10T07:38:58.951Z,15.27
2023-05-10T07:41:27.865Z,15.57
2023-05-10T07:43:54.464Z,15.74
2023-05-10T07:46:21.228Z,15.94
2023-05-10T07:48:47.883Z,16.07
2023-05-10T07:51:14.695Z,16.26
2023-05-10T07:53:41.517Z,16.29
2023-05-10T07:56:32.685Z,16.21
2023-05-10T07:59:00.811Z,16.32
2023-05-10T08:01:32.890Z,16.31
2023-05-10T08:03:59.542Z,16.27
2023-05-10T08:06:29.048Z,16.33
2023-05-10T08:08:55.733Z,16.32
2023-05-10T08:11:22.465Z,16.42
2023-05-10T08:13:50.793Z,16.45
2023-05-10T08:16:18.327Z,16.62
2023-05-10T08:18:46.806Z,16.75
2023-05-10T08:21:14.501Z,16.72
2023-05-10T08:23:41.692Z,16.79
2023-05-10T08:26:08.279Z,16.76
2023-05-10T08:28:34.875Z,16.70
2023-05-10T08:31:01.575Z,16.85
2023-05-10T08:33:28.185Z,16.83
2023-05-10T08:35:54.788Z,16.85
2023-05-10T08:38:21.589Z,16.99
2023-05-10T08:40:51.805Z,17.07
2023-05-10T08:43:19.228Z,17.14
2023-05-10T08:45:48.690Z,17.05
2023-05-10T08:48:17.490Z,17.27
2023-05-10T08:50:46.002Z,17.43
2023-05-10T08:53:14.098Z,17.35
2023-05-10T08:55:43.068Z,17.17
2023-05-10T08:58:10.374Z,17.10
2023-05-10T09:00:38.307Z,17.08
2023-05-10T09:03:06.592Z,17.07
2023-05-10T09:05:33.625Z,17.07
2023-05-10T09:08:01.630Z,17.10
2023-05-10T09:10:29.786Z,17.23
2023-05-10T09:12:59.718Z,17.36
2023-05-10T09:15:26.884Z,17.49
2023-05-10T09:17:53.940Z,17.56
2023-05-10T09:20:20.697Z,17.63
2023-05-10T09:22:47.568Z,17.95
2023-05-10T09:25:16.611Z,18.27
2023-05-10T09:27:47.892Z,18.79
2023-05-10T09:30:28.647Z,19.11
2023-05-10T09:32:56.986Z,19.29
2023-05-10T09:35:29.299Z,19.30
2023-05-10T09:37:58.272Z,19.49
2023-05-10T09:40:26.290Z,19.51
2023-05-10T09:43:00.449Z,19.41
2023-05-10T09:45:29.063Z,19.45
2023-05-10T09:47:56.656Z,19.66
2023-05-10T09:50:23.968Z,19.63
2023-05-10T09:53:01.218Z,19.37
2023-05-10T09:55:41.347Z,19.24
2023-05-10T09:58:11.492Z,19.23
2023-05-10T10:00:43.592Z,19.24
2023-05-10T10:03:21.050Z,19.39
2023-05-10T10:05:49.396Z,19.70
2023-05-10T10:08:16.871Z,20.12
2023-05-10T10:10:46.926Z,20.33
2023-05-10T10:13:14.602Z,20.28
2023-05-10T10:15:43.108Z,20.12
2023-05-10T10:18:14.295Z,20.14
2023-05-10T10:20:41.346Z,20.54
2023-05-10T10:23:09.327Z,20.78
2023-05-10T10:25:36.586Z,20.85
2023-05-10T10:28:27.539Z,20.75
2023-05-10T10:30:57.256Z,20.64
2023-05-10T10:33:29.768Z,21.00
2023-05-10T10:35:59.923Z,21.19
2023-05-10T10:38:26.531Z,21.41
2023-05-10T10:41:04.123Z,21.42
2023-05-10T10:43:31.360Z,21.39
2023-05-10T10:46:15.673Z,21.50
2023-05-10T10:48:48.046Z,21.79
2023-05-10T10:51:15.393Z,21.85
2023-05-10T10:53:42.264Z,21.57
2023-05-10T10:56:11.621Z,21.32
2023-05-10T10:58:39.319Z,20.88
2023-05-10T11:01:14.779Z,21.17
2023-05-10T11:03:42.488Z,21.25
2023-05-10T11:06:09.304Z,21.05
2023-05-10T11:08:44.383Z,20.62
2023-05-10T11:11:15.060Z,20.41
2023-05-10T11:13:51.228Z,20.56
2023-05-10T11:16:20.539Z,20.60
2023-05-10T11:18:59.326Z,20.55
2023-05-10T11:21:26.077Z,20.65
2023-05-10T11:23:57.436Z,20.70
2023-05-10T11:26:32.443Z,20.60
2023-05-10T11:29:02.847Z,20.60
2023-05-10T11:31:30.405Z,20.76
2023-05-10T11:33:59.297Z,20.98
2023-05-10T11:36:33.528Z,21.14
2023-05-10T11:39:00.389Z,21.08
2023-05-10T11:41:31.496Z,21.12
2023-05-10T11:43:59.072Z,21.11
2023-05-10T11:46:27.999Z,21.09
2023-05-10T11:48:58.883Z,21.10
2023-05-10T11:51:26.412Z,21.17
2023-05-10T11:53:57.425Z,21.25
2023-05-10T11:56:24.588Z,21.19
2023-05-10T11:58:58.814Z,21.16
2023-05-10T12:01:25.989Z,21.30
2023-05-10T12:03:55.044Z,21.48
2023-05-10T12:06:22.647Z,21.65
2023-05-10T12:08:56.256Z,21.71
2023-05-10T12:11:26.752Z,21.68
2023-05-10T12:13:54.126Z,21.56
2023-05-10T12:16:22.805Z,21.28
2023-05-10T12:18:50.673Z,21.22
2023-05-10T12:21:17.439Z,21.27
2023-05-10T12:23:47.082Z,21.17
2023-05-10T12:26:13.974Z,21.17
2023-05-10T12:28:40.696Z,21.10
2023-05-10T12:31:08.006Z,21.17
2023-05-10T12:33:45.574Z,21.18
2023-05-10T12:36:14.659Z,21.01
2023-05-10T12:38:49.065Z,21.14
2023-05-10T12:41:19.758Z,21.69
2023-05-10T12:43:46.592Z,21.94
2023-05-10T12:46:15.396Z,22.15
2023-05-10T12:48:43.986Z,22.16
2023-05-10T12:51:12.861Z,22.22
2023-05-10T12:53:41.800Z,22.24
2023-05-10T12:56:10.958Z,22.11
2023-05-10T12:58:37.587Z,22.02
2023-05-10T13:01:05.741Z,21.95
2023-05-10T13:03:32.622Z,21.82
2023-05-10T13:05:59.297Z,21.89
2023-05-10T13:08:26.028Z,22.24
2023-05-10T13:10:53.101Z,22.72
2023-05-10T13:13:19.671Z,23.14
2023-05-10T13:15:46.235Z,23.63
2023-05-10T13:18:12.869Z,23.86
2023-05-10T13:20:39.517Z,23.49
2023-05-10T13:23:06.091Z,23.40
2023-05-10T13:25:32.705Z,23.30
2023-05-10T13:27:59.268Z,23.13
2023-05-10T13:30:26.169Z,22.88
2023-05-10T13:32:52.817Z,22.60
2023-05-10T13:35:19.446Z,22.45
2023-05-10T13:37:46.004Z,22.24
2023-05-10T13:40:12.870Z,21.84
2023-05-10T13:42:39.492Z,21.63
2023-05-10T13:45:06.897Z,21.57
2023-05-10T13:47:33.511Z,21.57
2023-05-10T13:50:00.224Z,21.56
2023-05-10T13:52:27.368Z,21.49
2023-05-10T13:54:56.002Z,21.39
2023-05-10T13:57:24.102Z,21.29
2023-05-10T13:59:51.253Z,21.37
2023-05-10T14:02:17.993Z,21.41
2023-05-10T14:04:44.588Z,21.49
2023-05-10T14:07:11.175Z,21.56
2023-05-10T14:09:37.788Z,21.78
2023-05-10T14:12:04.638Z,21.91
2023-05-10T14:14:31.303Z,22.26
2023-05-10T14:16:58.041Z,22.61
2023-05-10T14:19:24.599Z,23.00
2023-05-10T14:21:53.000Z,22.75
2023-05-10T14:24:19.586Z,22.51
2023-05-10T14:26:46.277Z,22.19
2023-05-10T14:29:13.047Z,22.07
2023-05-10T14:31:39.823Z,22.82
2023-05-10T14:34:06.718Z,23.12
2023-05-10T14:36:34.575Z,23.32
2023-05-10T14:39:01.122Z,24.42
2023-05-10T14:41:27.710Z,24.80
2023-05-10T14:43:54.300Z,25.53
2023-05-10T14:46:21.177Z,26.42
2023-05-10T14:48:47.742Z,26.93
2023-05-10T14:51:14.455Z,27.34
2023-05-10T14:53:41.141Z,26.47
2023-05-10T14:56:08.079Z,25.66
2023-05-10T14:58:34.802Z,25.13
2023-05-10T15:01:01.824Z,26.48
2023-05-10T15:03:29.108Z,28.08
2023-05-10T15:05:57.175Z,28.21
2023-05-10T15:08:24.765Z,26.96
2023-05-10T15:10:52.062Z,27.11
2023-05-10T15:13:18.645Z,26.54
2023-05-10T15:15:45.294Z,28.52
2023-05-10T15:18:11.899Z,29.42
2023-05-10T15:20:38.588Z,28.96
2023-05-10T15:23:05.165Z,26.67
2023-05-10T15:25:32.151Z,25.66
2023-05-10T15:27:58.707Z,24.84
2023-05-10T15:30:25.369Z,24.11
2023-05-10T15:32:52.220Z,23.64
2023-05-10T15:35:19.495Z,23.15
2023-05-10T15:37:48.452Z,22.87
2023-05-10T15:40:15.233Z,22.69
2023-05-10T15:42:41.946Z,22.58
2023-05-10T15:45:09.126Z,22.58
2023-05-10T15:47:35.731Z,22.49
2023-05-10T15:50:02.422Z,22.35
2023-05-10T15:52:29.098Z,22.10
2023-05-10T15:54:55.706Z,22.03
2023-05-10T15:57:22.295Z,21.95
2023-05-10T15:59:49.230Z,21.69
2023-05-10T16:02:17.599Z,21.48
2023-05-10T16:04:44.912Z,21.35
2023-05-10T16:07:11.468Z,21.67
2023-05-10T16:09:38.058Z,21.57
2023-05-10T16:12:05.000Z,22.16
2023-05-10T16:14:31.790Z,21.90
2023-05-10T16:16:58.628Z,21.90
2023-05-10T16:19:25.941Z,21.94
2023-05-10T16:21:53.812Z,21.46
2023-05-10T16:24:20.501Z,21.16
2023-05-10T16:26:47.136Z,20.91
2023-05-10T16:29:13.747Z,20.75
2023-05-10T16:31:40.333Z,20.64
2023-05-10T16:34:06.939Z,20.59
2023-05-10T16:36:33.987Z,20.42
2023-05-10T16:39:00.877Z,20.25
2023-05-10T16:41:27.459Z,20.10
2023-05-10T16:43:57.125Z,19.98
2023-05-10T16:46:23.780Z,19.92
2023-05-10T16:48:50.392Z,19.90
2023-05-10T16:51:17.116Z,19.89
2023-05-10T16:53:43.885Z,19.84
2023-05-10T16:56:10.588Z,19.93
2023-05-10T16:58:37.505Z,19.99
2023-05-10T17:01:04.190Z,19.96
2023-05-10T17:03:31.079Z,20.04
2023-05-10T17:05:58.984Z,19.83
2023-05-10T17:08:25.595Z,19.61
2023-05-10T17:10:52.154Z,19.43
2023-05-10T17:13:18.829Z,19.13
2023-05-10T17:15:47.400Z,19.09
2023-05-10T17:18:14.062Z,18.91
2023-05-10T17:20:43.278Z,18.80
2023-05-10T17:23:09.824Z,18.69
2023-05-10T17:25:36.841Z,18.49
2023-05-10T17:28:03.890Z,18.34
2023-05-10T17:30:32.702Z,18.15
2023-05-10T17:33:00.235Z,18.17
2023-05-10T17:35:27.109Z,18.09
2023-05-10T17:37:54.309Z,18.01
2023-05-10T17:40:21.017Z,17.90
2023-05-10T17:42:47.824Z,17.89
2023-05-10T17:45:15.018Z,17.84
2023-05-10T17:47:41.767Z,17.85
2023-05-10T17:50:10.167Z,17.73
2023-05-10T17:52:37.058Z,17.64
2023-05-10T17:55:03.852Z,17.54
2023-05-10T17:57:30.898Z,17.39
2023-05-10T17:59:57.481Z,17.33
2023-05-10T18:02:24.046Z,17.16
2023-05-10T18:04:50.770Z,17.06
2023-05-10T18:07:17.401Z,16.87
2023-05-10T18:09:43.956Z,16.81
2023-05-10T18:12:10.599Z,16.72
2023-05-10T18:14:41.073Z,16.58
2023-05-10T18:17:09.323Z,16.44
2023-05-10T18:19:36.136Z,16.29
2023-05-10T18:22:02.876Z,16.12
2023-05-10T18:26:59.044Z,16.02
2023-05-10T18:29:25.961Z,15.96
2023-05-10T18:31:52.578Z,15.84
2023-05-10T18:34:19.342Z,15.82
2023-05-10T18:36:46.244Z,15.78
2023-05-10T18:39:13.304Z,15.77
2023-05-10T18:41:40.201Z,15.71
2023-05-10T18:44:06.962Z,15.64
2023-05-10T18:46:33.769Z,15.59
2023-05-10T18:49:00.352Z,15.55
2023-05-10T18:51:29.602Z,15.51
2023-05-10T18:53:56.117Z,15.48
2023-05-10T18:56:23.755Z,15.42
2023-05-10T18:58:50.357Z,15.39
2023-05-10T19:01:16.979Z,15.35
2023-05-10T19:03:43.550Z,15.31
2023-05-10T19:06:11.481Z,15.32
2023-05-10T19:08:38.013Z,15.28
2023-05-10T19:11:04.569Z,15.22
2023-05-10T19:13:31.135Z,15.17
2023-05-10T19:16:12.770Z,15.13
2023-05-10T19:18:40.226Z,15.07
2023-05-10T19:21:07.831Z,15.02
2023-05-10T19:23:35.234Z,14.98
2023-05-10T19:26:02.079Z,14.93
2023-05-10T19:28:28.680Z,14.92
2023-05-10T19:30:55.343Z,14.87
2023-05-10T19:33:22.012Z,14.86
2023-05-10T19:35:55.142Z,14.82
2023-05-10T19:38:25.802Z,14.75
2023-05-10T19:40:58.057Z,14.72
2023-05-10T19:43:29.011Z,14.62
2023-05-10T19:45:59.204Z,14.59
2023-05-10T19:48:26.151Z,14.53
2023-05-10T19:51:01.293Z,14.50
2023-05-10T19:53:28.269Z,14.49
2023-05-10T19:55:55.551Z,14.47
2023-05-10T19:58:23.459Z,14.49
2023-05-10T20:00:50.093Z,14.49
2023-05-10T20:03:16.836Z,14.49
2023-05-10T20:05:43.491Z,14.46
2023-05-10T20:08:10.059Z,14.46
2023-05-10T20:10:36.641Z,14.44
2023-05-10T20:13:03.242Z,14.46
2023-05-10T20:15:30.064Z,14.46
2023-05-10T20:17:56.696Z,14.44
2023-05-10T20:20:23.673Z,14.41
2023-05-10T20:22:50.626Z,14.44
2023-05-10T20:25:18.334Z,14.45
2023-05-10T20:27:45.366Z,14.38
2023-05-10T20:30:12.523Z,14.38
2023-05-10T20:32:39.548Z,14.33
2023-05-10T20:35:07.162Z,14.28
2023-05-10T20:37:33.707Z,14.28
2023-05-10T20:40:00.310Z,14.25
2023-05-10T20:42:27.101Z,14.22
2023-05-10T20:44:53.750Z,14.19
2023-05-10T20:47:20.476Z,14.17
2023-05-10T20:49:47.106Z,14.10
2023-05-10T20:52:13.928Z,14.05
2023-05-10T20:54:40.728Z,14.00
2023-05-10T20:57:07.513Z,14.00
2023-05-10T20:59:34.312Z,13.94
2023-05-10T21:02:01.291Z,13.92
2023-05-10T21:04:28.022Z,13.88
2023-05-10T21:06:56.134Z,13.81
2023-05-10T21:09:22.927Z,13.76
2023-05-10T21:11:50.882Z,13.78
2023-05-10T21:14:17.485Z,13.78
2023-05-10T21:16:44.152Z,13.80
2023-05-10T21:19:12.006Z,13.80
2023-05-10T21:21:38.643Z,13.79
2023-05-10T21:24:05.863Z,13.76
2023-05-10T21:26:32.570Z,13.75
2023-05-10T21:28:59.360Z,13.72
2023-05-10T21:31:26.108Z,13.69
2023-05-10T21:33:52.753Z,13.70
2023-05-10T21:36:19.444Z,13.71
2023-05-10T21:38:46.682Z,13.72
2023-05-10T21:41:13.293Z,13.72
2023-05-10T21:43:39.872Z,13.71
2023-05-10T21:46:07.446Z,13.67
2023-05-10T21:48:34.077Z,13.66
2023-05-10T21:51:01.642Z,13.65
2023-05-10T21:53:28.989Z,13.64
2023-05-10T21:55:56.338Z,13.65
2023-05-10T21:58:23.197Z,13.62
2023-05-10T22:00:49.975Z,13.64
2023-05-10T22:03:16.669Z,13.66
2023-05-10T22:05:43.560Z,13.65
2023-05-10T22:08:10.101Z,13.69
2023-05-10T22:10:36.688Z,13.69
2023-05-10T22:13:05.370Z,13.71
2023-05-10T22:15:34.215Z,13.67
2023-05-10T22:18:02.431Z,13.64
2023-05-10T22:20:29.191Z,13.61
2023-05-10T22:22:56.069Z,13.59
2023-05-10T22:25:22.801Z,13.56
2023-05-10T22:27:49.386Z,13.55
2023-05-10T22:30:16.515Z,13.52
2023-05-10T22:32:43.463Z,13.48
2023-05-10T22:35:10.050Z,13.46
2023-05-10T22:37:36.603Z,13.42
2023-05-10T22:40:03.946Z,13.40
2023-05-10T22:42:30.525Z,13.38
2023-05-10T22:44:57.210Z,13.32
2023-05-10T22:47:23.764Z,13.32
2023-05-10T22:49:50.394Z,13.33
2023-05-10T22:52:16.949Z,13.29
2023-05-10T22:54:44.287Z,13.26
2023-05-10T22:57:11.322Z,13.25
2023-05-10T22:59:37.901Z,13.24
2023-05-10T23:02:04.675Z,13.20
2023-05-10T23:04:31.346Z,13.10
2023-05-10T23:06:57.963Z,13.05
2023-05-10T23:09:24.600Z,13.03
2023-05-10T23:11:51.191Z,13.04
2023-05-10T23:14:17.760Z,13.02
2023-05-10T23:16:44.420Z,12.97
2023-05-10T23:19:11.197Z,12.91
2023-05-10T23:21:37.977Z,12.81
2023-05-10T23:24:04.965Z,12.71
2023-05-10T23:26:31.614Z,12.60
2023-05-10T23:28:58.178Z,12.56
2023-05-10T23:31:24.823Z,12.47
2023-05-10T23:33:51.405Z,12.24
2023-05-10T23:36:19.596Z,12.13
2023-05-10T23:38:46.257Z,12.03
2023-05-10T23:41:13.057Z,11.92
2023-05-10T23:43:39.693Z,11.88
2023-05-10T23:46:06.574Z,11.84
2023-05-10T23:48:33.179Z,11.81
2023-05-10T23:50:59.802Z,11.78
2023-05-10T23:53:26.478Z,11.68
2023-05-10T23:55:53.059Z,11.65
2023-05-10T23:58:19.689Z,11.64
